Time;durP1;ratioP1;P1;durP2;ratioP2;P2;SDS_P1;SDS_P2;PMS_P1;PMS_P2;Temp;Humidity;BMP_temperature;BMP_pressure;BME280_temperature;BME280_humidity;BME280_pressure;Samples;Min_cycle;Max_cycle;Signal;HPM_P1;HPM_P2
2023/08/20 00:01:23;;;;;;;9.57;2.38;;;;;;;17.37;94.95;101973.34;5010486;28;20034;-72
2023/08/20 00:03:50;;;;;;;6.75;1.60;;;;;;;17.33;94.86;101973.59;5010646;28;20041;-71
2023/08/20 00:06:16;;;;;;;7.07;1.60;;;;;;;17.30;95.19;101973.00;5009131;28;20030;-70
2023/08/20 00:08:41;;;;;;;5.70;2.17;;;;;;;17.23;95.34;101969.00;5012155;28;20080;-72
2023/08/20 00:11:08;;;;;;;8.88;1.70;;;;;;;17.17;96.50;101969.50;5027654;28;20046;-71
2023/08/20 00:13:33;;;;;;;5.32;1.85;;;;;;;17.14;95.95;101967.00;5029639;28;20141;-72
2023/08/20 00:15:59;;;;;;;4.60;1.98;;;;;;;17.11;96.44;101959.00;5029297;28;20548;-71
2023/08/20 00:18:25;;;;;;;4.68;1.90;;;;;;;17.06;96.87;101957.47;5029834;28;20059;-72
2023/08/20 00:20:50;;;;;;;5.35;2.10;;;;;;;17.06;96.66;101959.38;5029495;28;20037;-72
2023/08/20 00:23:16;;;;;;;5.63;1.67;;;;;;;17.06;95.68;101967.63;5028613;28;20056;-72
2023/08/20 00:25:41;;;;;;;4.57;1.77;;;;;;;17.02;96.09;101957.88;5028448;28;20112;-72
2023/08/20 00:28:07;;;;;;;3.90;1.45;;;;;;;16.99;95.62;101956.25;5028183;28;20044;-71
2023/08/20 00:30:32;;;;;;;3.03;2.65;;;;;;;16.90;97.37;101951.50;5027360;28;20026;-71
2023/08/20 00:32:57;;;;;;;5.18;2.00;;;;;;;16.88;96.96;101952.63;5029616;28;20059;-72
2023/08/20 00:35:23;;;;;;;3.42;1.75;;;;;;;16.87;96.88;101960.00;5029038;28;20034;-71
2023/08/20 00:37:48;;;;;;;6.35;2.20;;;;;;;16.88;96.39;101966.38;5026869;28;20038;-72
2023/08/20 00:40:14;;;;;;;4.47;1.75;;;;;;;16.83;96.58;101977.72;5027698;28;20124;-69
2023/08/20 00:42:39;;;;;;;3.60;1.73;;;;;;;16.79;95.93;101984.50;5029457;28;20029;-72
2023/08/20 00:45:07;;;;;;;7.88;2.20;;;;;;;16.78;96.25;101991.84;5027362;28;20041;-72
2023/08/20 00:47:33;;;;;;;7.75;2.00;;;;;;;16.77;96.75;101994.72;5018080;28;20075;-72
2023/08/20 00:49:59;;;;;;;7.63;2.20;;;;;;;16.75;97.02;101994.84;5007449;28;20041;-72
2023/08/20 00:52:25;;;;;;;5.60;1.85;;;;;;;16.77;96.99;101995.59;5006692;28;20045;-71
2023/08/20 00:54:51;;;;;;;6.63;1.95;;;;;;;16.78;98.23;102000.09;5015299;28;20421;-72
2023/08/20 00:57:19;;;;;;;4.93;1.95;;;;;;;16.80;97.72;101992.63;5028572;28;20037;-72
2023/08/20 00:59:48;;;;;;;6.85;1.77;;;;;;;16.82;97.97;102004.34;5028645;28;20136;-72
2023/08/20 01:02:14;;;;;;;6.45;2.30;;;;;;;16.86;98.49;102015.97;5029051;28;20378;-69
2023/08/20 01:04:39;;;;;;;7.45;2.08;;;;;;;16.93;98.74;102024.63;5043422;28;20033;-72
2023/08/20 01:07:31;;;;;;;9.35;2.15;;;;;;;17.00;98.57;102028.63;5028266;28;20492;-72
2023/08/20 01:10:10;;;;;;;5.38;1.80;;;;;;;17.04;98.92;102032.88;5024103;28;20041;-71
2023/08/20 01:12:36;;;;;;;5.70;1.90;;;;;;;17.06;99.72;102030.84;5020154;28;20041;-72
2023/08/20 01:15:01;;;;;;;9.05;2.13;;;;;;;17.09;100.00;102037.00;5026450;28;20343;-72
2023/08/20 01:17:27;;;;;;;5.65;1.90;;;;;;;17.14;100.00;102035.75;5029005;28;20814;-72
2023/08/20 01:19:52;;;;;;;6.57;2.30;;;;;;;17.19;99.61;102041.75;5028226;28;20029;-72
2023/08/20 01:22:24;;;;;;;7.78;2.55;;;;;;;17.22;100.00;102031.38;5026098;28;20044;-72
2023/08/20 01:25:19;;;;;;;5.63;2.33;;;;;;;17.23;100.00;102027.63;5027525;28;20030;-71
2023/08/20 01:28:15;;;;;;;5.60;2.90;;;;;;;17.28;100.00;102019.84;5028028;28;20052;-71
2023/08/20 01:30:43;;;;;;;8.30;2.92;;;;;;;17.25;100.00;102021.97;5027015;28;20036;-72
2023/08/20 01:33:09;;;;;;;6.53;2.90;;;;;;;17.29;100.00;102021.59;5027297;28;20037;-71
2023/08/20 01:35:34;;;;;;;14.38;3.60;;;;;;;17.34;100.00;102016.59;5027549;28;20396;-70
2023/08/20 01:38:03;;;;;;;5.13;2.85;;;;;;;17.37;99.65;102015.47;5025868;28;20049;-72
2023/08/20 01:40:29;;;;;;;10.30;2.63;;;;;;;17.39;100.00;102018.97;5025955;28;20060;-72
2023/08/20 01:42:54;;;;;;;8.00;2.53;;;;;;;17.40;100.00;102023.50;5027859;28;20077;-73
2023/08/20 01:45:21;;;;;;;11.93;3.00;;;;;;;17.45;100.00;102021.22;5021347;28;20413;-71
2023/08/20 01:47:47;;;;;;;8.13;3.05;;;;;;;17.48;100.00;102023.72;5021270;28;20072;-71
2023/08/20 01:50:14;;;;;;;8.52;3.28;;;;;;;17.51;100.00;102022.59;5026498;28;20025;-69
2023/08/20 01:52:39;;;;;;;5.03;2.88;;;;;;;17.50;100.00;102024.47;5026316;28;20083;-72
2023/08/20 01:55:05;;;;;;;8.38;2.90;;;;;;;17.53;100.00;102035.25;5018919;28;20490;-71
2023/08/20 01:57:32;;;;;;;6.05;3.00;;;;;;;17.58;100.00;102043.13;5007758;28;20033;-71
2023/08/20 01:59:57;;;;;;;6.32;3.10;;;;;;;17.60;100.00;102050.22;5008471;28;20041;-72
2023/08/20 02:02:23;;;;;;;7.38;2.90;;;;;;;17.59;100.00;102051.22;5007074;28;20124;-72
2023/08/20 02:04:49;;;;;;;7.55;2.53;;;;;;;17.62;100.00;102047.34;5008124;28;20034;-71
2023/08/20 02:07:15;;;;;;;7.18;2.70;;;;;;;17.62;100.00;102057.47;5006349;28;20072;-72
2023/08/20 02:09:40;;;;;;;9.98;2.55;;;;;;;17.63;100.00;102060.13;5012724;28;20087;-70
2023/08/20 02:12:05;;;;;;;9.98;2.42;;;;;;;17.62;100.00;102058.34;5025998;28;20136;-70
2023/08/20 02:14:34;;;;;;;9.48;2.92;;;;;;;17.63;100.00;102054.63;5025356;28;20124;-72
2023/08/20 02:17:03;;;;;;;11.75;2.90;;;;;;;17.63;100.00;102056.50;5025897;28;20549;-72
2023/08/20 02:19:28;;;;;;;10.68;2.85;;;;;;;17.56;100.00;102058.84;5026541;28;20458;-72
2023/08/20 02:21:54;;;;;;;8.48;3.20;;;;;;;17.49;100.00;102057.63;5025591;28;20116;-72
2023/08/20 02:24:19;;;;;;;9.60;3.08;;;;;;;17.47;100.00;102057.72;5022124;28;20052;-72
2023/08/20 02:26:45;;;;;;;12.00;3.05;;;;;;;17.47;100.00;102056.88;5006137;28;20450;-71
2023/08/20 02:29:11;;;;;;;6.18;2.85;;;;;;;17.46;100.00;102060.63;5006920;28;20029;-72
2023/08/20 02:31:37;;;;;;;10.02;3.35;;;;;;;17.42;100.00;102056.38;5007762;28;20076;-71
2023/08/20 02:34:02;;;;;;;12.07;3.03;;;;;;;17.40;100.00;102058.38;5006547;28;20037;-72
2023/08/20 02:36:27;;;;;;;9.20;3.20;;;;;;;17.38;100.00;102055.75;5007013;28;20111;-72
2023/08/20 02:38:53;;;;;;;9.18;3.78;;;;;;;17.38;100.00;102052.13;5006161;28;20542;-72
2023/08/20 02:41:18;;;;;;;6.20;2.85;;;;;;;17.33;100.00;102053.38;5007523;28;20117;-72
2023/08/20 02:43:44;;;;;;;7.55;2.72;;;;;;;17.32;100.00;102050.75;5007952;28;20121;-70
2023/08/20 02:46:09;;;;;;;7.35;2.97;;;;;;;17.29;100.00;102051.84;5019491;28;20370;-71
2023/08/20 02:48:35;;;;;;;5.88;3.20;;;;;;;17.29;100.00;102046.34;5025760;28;20036;-72
2023/08/20 02:51:00;;;;;;;6.30;2.88;;;;;;;17.24;100.00;102047.75;5007634;28;20038;-72
2023/08/20 02:53:25;;;;;;;6.35;2.72;;;;;;;17.20;99.52;102055.34;5009664;28;20037;-72
2023/08/20 02:55:51;;;;;;;6.38;2.83;;;;;;;17.16;100.00;102051.13;5025071;28;20091;-72
2023/08/20 02:58:16;;;;;;;5.63;2.28;;;;;;;17.11;100.00;102046.97;5030502;28;20056;-72
2023/08/20 03:00:43;;;;;;;8.90;2.33;;;;;;;17.04;100.00;102047.50;5029213;28;20081;-72
2023/08/20 03:03:09;;;;;;;4.28;2.28;;;;;;;16.99;99.92;102040.63;5030347;28;20095;-72
2023/08/20 03:05:36;;;;;;;5.65;2.42;;;;;;;16.95;99.71;102042.72;5028799;28;20025;-72
2023/08/20 03:08:05;;;;;;;10.02;2.67;;;;;;;16.91;99.51;102040.34;5029933;28;20112;-72
2023/08/20 03:10:31;;;;;;;7.65;2.47;;;;;;;16.86;99.95;102037.09;5017882;28;20083;-72
2023/08/20 03:13:01;;;;;;;8.75;2.75;;;;;;;16.78;99.85;102035.81;5026538;28;20374;-71
2023/08/20 03:15:27;;;;;;;6.50;2.78;;;;;;;16.72;100.00;102040.94;5021931;28;20056;-71
2023/08/20 03:17:52;;;;;;;6.82;2.92;;;;;;;16.64;100.00;102033.25;4994008;28;20042;-71
2023/08/20 03:20:18;;;;;;;5.13;2.50;;;;;;;16.57;100.00;102032.88;5021556;28;20032;-71
2023/08/20 03:22:43;;;;;;;10.35;2.80;;;;;;;16.52;100.00;102029.63;5023673;28;20029;-70
2023/08/20 03:25:09;;;;;;;8.23;3.17;;;;;;;16.46;100.00;102026.47;5026589;28;20428;-70
2023/08/20 03:27:34;;;;;;;7.85;2.97;;;;;;;16.42;100.00;102038.72;5012962;28;20077;-71
2023/08/20 03:30:00;;;;;;;6.03;2.28;;;;;;;16.39;100.00;102042.56;5010897;28;20538;-71
2023/08/20 03:32:26;;;;;;;7.65;2.78;;;;;;;16.36;100.00;102040.03;5028452;28;20116;-71
2023/08/20 03:34:53;;;;;;;8.20;3.25;;;;;;;16.33;100.00;102038.44;5028660;28;20132;-71
2023/08/20 03:37:18;;;;;;;7.93;3.33;;;;;;;16.31;100.00;102036.78;5021373;28;20040;-71
2023/08/20 03:39:44;;;;;;;6.78;3.45;;;;;;;16.25;100.00;102027.16;5011330;28;20018;-69
2023/08/20 03:42:09;;;;;;;8.23;3.35;;;;;;;16.23;99.85;102036.53;5010801;28;20406;-70
2023/08/20 03:44:34;;;;;;;6.50;3.28;;;;;;;16.19;99.64;102032.25;5010433;28;20137;-71
2023/08/20 03:47:00;;;;;;;5.97;3.42;;;;;;;16.16;100.00;102043.47;5011906;28;20076;-72
2023/08/20 03:49:26;;;;;;;5.93;3.70;;;;;;;16.14;100.00;102043.59;5013704;28;20557;-71
2023/08/20 03:51:51;;;;;;;7.82;3.38;;;;;;;16.10;99.40;102039.34;5025332;28;20099;-71
2023/08/20 03:54:17;;;;;;;6.80;3.65;;;;;;;16.06;99.41;102046.03;5010408;28;20116;-71
2023/08/20 03:56:42;;;;;;;6.47;3.50;;;;;;;16.01;99.15;102046.41;5010807;28;20061;-69
2023/08/20 03:59:08;;;;;;;8.82;3.55;;;;;;;15.97;99.65;102053.13;5009154;28;20085;-72
2023/08/20 04:01:35;;;;;;;7.68;3.95;;;;;;;15.94;100.00;102050.59;5014551;28;20046;-71
2023/08/20 04:04:03;;;;;;;7.85;3.33;;;;;;;15.92;99.38;102051.72;5010263;28;20137;-72
2023/08/20 04:06:28;;;;;;;7.75;3.30;;;;;;;15.88;99.19;102061.16;5009574;28;20409;-71
2023/08/20 04:08:53;;;;;;;6.95;3.30;;;;;;;15.85;99.12;102055.91;5009228;28;20117;-72
2023/08/20 04:11:19;;;;;;;8.18;3.08;;;;;;;15.79;99.21;102062.72;5012434;28;20079;-72
2023/08/20 04:13:45;;;;;;;7.25;3.25;;;;;;;15.75;100.00;102066.69;5029737;28;20030;-71
2023/08/20 04:16:10;;;;;;;11.13;3.25;;;;;;;15.70;99.16;102071.66;5018133;28;20036;-71
2023/08/20 04:18:36;;;;;;;7.63;3.03;;;;;;;15.67;99.23;102067.28;5008806;28;20402;-71
2023/08/20 04:21:01;;;;;;;11.98;3.63;;;;;;;15.65;99.53;102063.75;5012376;28;20025;-72
2023/08/20 04:23:27;;;;;;;6.22;3.25;;;;;;;15.60;100.00;102071.44;5015523;28;20431;-71
2023/08/20 04:25:52;;;;;;;7.15;4.05;;;;;;;15.58;100.00;102073.41;5019429;28;20092;-71
2023/08/20 04:28:18;;;;;;;10.48;3.67;;;;;;;15.57;99.98;102071.66;5009369;28;20040;-72
2023/08/20 04:30:46;;;;;;;7.97;3.30;;;;;;;15.56;100.00;102069.91;5018068;28;20405;-69
2023/08/20 04:33:11;;;;;;;8.27;3.42;;;;;;;15.57;100.00;102074.38;5028056;28;20040;-70
2023/08/20 04:35:39;;;;;;;10.00;4.07;;;;;;;15.52;100.00;102077.47;5008374;28;20048;-71
2023/08/20 04:38:04;;;;;;;8.10;4.32;;;;;;;15.51;100.00;102074.84;5008398;28;20406;-71
2023/08/20 04:40:30;;;;;;;5.40;3.33;;;;;;;15.44;100.00;102066.22;5019592;28;20039;-71
2023/08/20 04:42:55;;;;;;;7.35;3.63;;;;;;;15.45;100.00;102064.34;5027812;28;20025;-72
2023/08/20 04:45:20;;;;;;;7.88;4.53;;;;;;;15.44;100.00;102062.59;5026885;28;20409;-71
2023/08/20 04:47:47;;;;;;;7.47;3.72;;;;;;;15.44;100.00;102065.34;5027792;28;20034;-71
2023/08/20 04:50:13;;;;;;;8.38;3.72;;;;;;;15.41;100.00;102069.16;5027980;28;20455;-70
2023/08/20 04:52:39;;;;;;;6.47;3.10;;;;;;;15.44;100.00;102076.31;5026747;28;20033;-71
2023/08/20 04:55:07;;;;;;;7.60;3.33;;;;;;;15.43;100.00;102074.53;5019459;28;20580;-71
2023/08/20 04:57:32;;;;;;;5.88;3.05;;;;;;;15.42;100.00;102073.66;5008146;28;20068;-69
2023/08/20 04:59:57;;;;;;;5.95;3.38;;;;;;;15.43;100.00;102072.66;5021895;28;20078;-70
2023/08/20 05:02:35;;;;;;;5.35;3.30;;;;;;;15.46;100.00;102079.81;5008177;28;20449;-71
2023/08/20 05:05:02;;;;;;;7.60;3.00;;;;;;;15.45;100.00;102080.78;5009412;28;20026;-71
2023/08/20 05:07:28;;;;;;;5.90;3.28;;;;;;;15.45;100.00;102076.19;5027550;28;20033;-71
2023/08/20 05:09:53;;;;;;;4.18;3.00;;;;;;;15.45;100.00;102078.94;5017488;28;20053;-71
2023/08/20 05:12:19;;;;;;;6.32;3.50;;;;;;;15.47;100.00;102079.69;5017576;28;20140;-71
2023/08/20 05:14:44;;;;;;;5.45;3.53;;;;;;;15.46;100.00;102083.41;5025684;28;20462;-70
2023/08/20 05:17:10;;;;;;;5.47;2.95;;;;;;;15.46;100.00;102093.50;5027570;28;20045;-71
2023/08/20 05:19:35;;;;;;;9.90;3.28;;;;;;;15.45;100.00;102089.91;5024802;28;20038;-72
2023/08/20 05:22:00;;;;;;;5.78;3.28;;;;;;;15.44;100.00;102090.03;5007035;28;20394;-72
2023/08/20 05:24:30;;;;;;;8.82;3.13;;;;;;;15.44;100.00;102092.75;5018978;28;20033;-71
2023/08/20 05:27:19;;;;;;;7.05;3.10;;;;;;;15.46;100.00;102102.63;5016131;28;20409;-71
2023/08/20 05:29:48;;;;;;;9.73;3.45;;;;;;;15.50;100.00;102103.28;5008694;28;20495;-71
2023/08/20 05:32:16;;;;;;;8.18;3.50;;;;;;;15.50;100.00;102109.63;5007129;28;20034;-72
2023/08/20 05:34:41;;;;;;;7.60;4.07;;;;;;;15.53;100.00;102108.53;5020663;28;20037;-71
2023/08/20 05:37:07;;;;;;;7.22;3.90;;;;;;;15.54;100.00;102110.28;5011006;28;20030;-71
2023/08/20 05:39:38;;;;;;;11.10;4.20;;;;;;;15.57;100.00;102105.47;5014889;28;20040;-70
2023/08/20 05:42:03;;;;;;;9.20;4.82;;;;;;;15.60;100.00;102103.47;5007531;28;20544;-71
2023/08/20 05:44:29;;;;;;;9.88;4.50;;;;;;;15.63;100.00;102098.66;5010728;28;20041;-72
2023/08/20 05:46:55;;;;;;;7.03;4.22;;;;;;;15.68;100.00;102112.06;5007290;28;20034;-72
2023/08/20 05:49:23;;;;;;;8.52;4.60;;;;;;;15.71;100.00;102109.94;5026485;28;20021;-71
2023/08/20 05:51:49;;;;;;;9.13;5.00;;;;;;;15.74;100.00;102103.38;5008917;28;20054;-71
2023/08/20 05:54:16;;;;;;;7.50;5.30;;;;;;;15.79;100.00;102114.88;5024988;28;20025;-71
2023/08/20 05:56:42;;;;;;;7.95;3.95;;;;;;;15.82;100.00;102104.56;5020357;28;20037;-72
2023/08/20 05:59:07;;;;;;;7.63;3.88;;;;;;;15.86;100.00;102107.06;5017521;28;20037;-72
2023/08/20 06:01:32;;;;;;;7.30;4.10;;;;;;;15.89;100.00;102106.81;5021023;28;20029;-72
2023/08/20 06:03:58;;;;;;;7.72;4.53;;;;;;;15.95;100.00;102115.50;5025691;28;20033;-72
2023/08/20 06:06:23;;;;;;;13.18;4.65;;;;;;;15.98;100.00;102114.38;5017560;28;20061;-72
2023/08/20 06:08:49;;;;;;;9.45;4.82;;;;;;;16.04;100.00;102100.19;5025658;28;20044;-72
2023/08/20 06:11:14;;;;;;;11.70;5.47;;;;;;;16.11;100.00;102103.34;5025913;28;20047;-70
2023/08/20 06:13:39;;;;;;;9.25;5.32;;;;;;;16.14;100.00;102098.50;5010173;28;20117;-72
2023/08/20 06:16:05;;;;;;;10.38;5.93;;;;;;;16.19;100.00;102106.41;5008227;28;20064;-72
2023/08/20 06:18:30;;;;;;;6.80;4.38;;;;;;;16.22;100.00;102098.78;5006645;28;20033;-71
2023/08/20 06:20:56;;;;;;;10.73;5.30;;;;;;;16.28;100.00;102101.09;5007466;28;20056;-71
2023/08/20 06:23:21;;;;;;;13.98;6.13;;;;;;;16.36;100.00;102105.09;5007759;28;20505;-72
2023/08/20 06:25:46;;;;;;;12.65;6.20;;;;;;;16.43;100.00;102107.25;5014256;28;20052;-72
2023/08/20 06:28:12;;;;;;;11.98;5.70;;;;;;;16.50;100.00;102100.28;5024648;28;20029;-72
2023/08/20 06:30:37;;;;;;;11.35;5.55;;;;;;;16.57;100.00;102107.06;5008252;28;20026;-71
2023/08/20 06:33:03;;;;;;;17.65;7.00;;;;;;;16.66;100.00;102105.47;5007348;28;20061;-72
2023/08/20 06:35:28;;;;;;;15.40;6.22;;;;;;;16.70;100.00;102117.13;5007956;28;20099;-72
2023/08/20 06:37:53;;;;;;;14.15;6.28;;;;;;;16.78;100.00;102117.41;5007527;28;20049;-72
2023/08/20 06:40:19;;;;;;;17.02;7.10;;;;;;;16.88;100.00;102120.31;5007663;28;20042;-72
2023/08/20 06:42:44;;;;;;;14.82;6.90;;;;;;;16.99;100.00;102115.72;5006766;28;20456;-72
2023/08/20 06:45:10;;;;;;;16.75;7.65;;;;;;;17.07;100.00;102110.50;5008884;28;20361;-72
2023/08/20 06:47:35;;;;;;;13.73;6.25;;;;;;;17.11;100.00;102113.84;5017308;28;20025;-72
2023/08/20 06:50:01;;;;;;;20.33;7.45;;;;;;;17.19;100.00;102110.50;5026056;28;20044;-72
2023/08/20 06:52:26;;;;;;;12.98;6.55;;;;;;;17.26;100.00;102117.28;5027177;28;20485;-73
2023/08/20 06:54:52;;;;;;;16.00;7.20;;;;;;;17.35;100.00;102111.03;5022495;28;20087;-73
2023/08/20 06:57:17;;;;;;;19.63;8.23;;;;;;;17.45;100.00;102112.03;5011228;28;20052;-71
2023/08/20 06:59:43;;;;;;;20.60;8.70;;;;;;;17.53;100.00;102112.28;5011337;28;20106;-72
2023/08/20 07:02:09;;;;;;;14.90;7.38;;;;;;;17.56;100.00;102114.75;5026159;28;20107;-72
2023/08/20 07:04:35;;;;;;;15.82;7.63;;;;;;;17.56;100.00;102113.91;5017437;28;20049;-72
2023/08/20 07:07:00;;;;;;;17.52;7.63;;;;;;;17.58;100.00;102115.53;5006684;28;20038;-72
2023/08/20 07:09:26;;;;;;;18.95;7.07;;;;;;;17.59;100.00;102121.91;5008003;28;20048;-72
2023/08/20 07:11:51;;;;;;;20.73;8.05;;;;;;;17.64;100.00;102127.03;5012406;28;20086;-72
2023/08/20 07:14:16;;;;;;;16.10;7.38;;;;;;;17.65;100.00;102126.91;5025616;28;20041;-72
2023/08/20 07:16:42;;;;;;;16.48;7.63;;;;;;;17.69;100.00;102128.41;5008220;28;20426;-72
2023/08/20 07:19:07;;;;;;;14.07;7.68;;;;;;;17.74;100.00;102128.94;5007574;28;20073;-72
2023/08/20 07:21:33;;;;;;;11.85;6.43;;;;;;;17.82;99.90;102128.31;5019150;28;20170;-71
2023/08/20 07:23:58;;;;;;;11.68;5.43;;;;;;;17.90;98.90;102120.28;5025989;28;20033;-72
2023/08/20 07:26:23;;;;;;;12.30;5.65;;;;;;;17.98;96.79;102125.16;5008301;28;20049;-72
2023/08/20 07:28:58;;;;;;;17.00;6.78;;;;;;;18.04;96.88;102128.25;5007183;28;20022;-72
2023/08/20 07:31:31;;;;;;;14.15;6.30;;;;;;;18.12;97.54;102126.75;5007804;28;20042;-72
2023/08/20 07:33:58;;;;;;;11.85;5.60;;;;;;;18.13;98.34;102128.50;5006015;28;20049;-73
2023/08/20 07:36:25;;;;;;;12.07;6.63;;;;;;;18.14;97.77;102125.63;5016704;28;20064;-72
2023/08/20 07:38:51;;;;;;;11.93;6.43;;;;;;;18.16;97.56;102134.63;5025836;28;20041;-73
2023/08/20 07:41:16;;;;;;;11.50;6.15;;;;;;;18.23;98.03;102129.47;5010556;28;20037;-73
2023/08/20 07:43:42;;;;;;;10.43;5.70;;;;;;;18.29;98.07;102131.72;5011683;28;20398;-73
2023/08/20 07:46:09;;;;;;;14.18;6.80;;;;;;;18.32;98.55;102131.44;5020496;28;20037;-72
2023/08/20 07:48:35;;;;;;;16.17;7.20;;;;;;;18.39;97.85;102134.56;5010958;28;20046;-73
2023/08/20 07:51:02;;;;;;;14.05;6.97;;;;;;;18.45;98.41;102145.94;5008907;28;20563;-72
2023/08/20 07:53:28;;;;;;;10.45;5.35;;;;;;;18.50;95.98;102140.91;5010661;28;20383;-72
2023/08/20 07:55:53;;;;;;;15.68;7.00;;;;;;;18.61;95.31;102145.50;5023972;28;20039;-72
2023/08/20 07:58:19;;;;;;;11.73;6.88;;;;;;;18.73;95.23;102144.47;5027320;28;20180;-73
2023/08/20 08:00:44;;;;;;;8.90;6.25;;;;;;;18.85;93.50;102146.19;5015759;28;20069;-72
2023/08/20 08:03:09;;;;;;;14.77;6.55;;;;;;;18.94;94.04;102152.78;5030779;28;20044;-72
2023/08/20 08:05:36;;;;;;;13.70;6.20;;;;;;;19.01;93.02;102142.94;5029692;28;20052;-71
2023/08/20 08:08:01;;;;;;;14.27;5.82;;;;;;;19.05;94.19;102136.16;5028877;28;20493;-72
2023/08/20 08:10:27;;;;;;;12.25;5.93;;;;;;;19.11;93.96;102143.88;5016768;28;20119;-72
2023/08/20 08:12:53;;;;;;;9.68;4.70;;;;;;;19.16;91.81;102146.22;5024848;28;20489;-72
2023/08/20 08:15:18;;;;;;;11.57;5.13;;;;;;;19.24;93.04;102151.09;5026152;28;20240;-73
2023/08/20 08:17:44;;;;;;;7.47;4.45;;;;;;;19.37;97.33;102152.63;5010424;28;20120;-72
2023/08/20 08:20:09;;;;;;;8.77;4.28;;;;;;;19.61;90.20;102157.00;5010512;28;20484;-72
2023/08/20 08:22:35;;;;;;;9.73;3.83;;;;;;;20.02;87.16;102164.28;5010225;28;20038;-72
2023/08/20 08:25:00;;;;;;;8.13;3.75;;;;;;;20.74;92.76;102156.72;5010547;28;20404;-72
2023/08/20 08:27:25;;;;;;;5.70;3.70;;;;;;;21.44;83.68;102157.38;5009456;28;20049;-72
2023/08/20 08:29:51;;;;;;;13.93;4.15;;;;;;;22.01;80.79;102158.16;5008588;28;20030;-72
2023/08/20 08:32:17;;;;;;;6.82;3.08;;;;;;;22.63;81.41;102157.38;5010257;28;20040;-73
2023/08/20 08:34:42;;;;;;;7.63;2.78;;;;;;;23.01;78.67;102155.31;5010628;28;20095;-73
2023/08/20 08:37:08;;;;;;;9.45;3.10;;;;;;;23.43;77.33;102161.00;5023298;28;20396;-73
2023/08/20 08:39:33;;;;;;;7.68;3.03;;;;;;;23.66;72.06;102163.28;5025243;28;20496;-72
2023/08/20 08:42:04;;;;;;;4.07;2.45;;;;;;;23.96;66.74;102167.41;5009575;28;20444;-72
2023/08/20 08:44:33;;;;;;;5.90;2.50;;;;;;;24.15;69.29;102163.47;5009788;28;20119;-73
2023/08/20 08:46:59;;;;;;;7.35;2.42;;;;;;;24.54;73.31;102168.53;5009380;28;20046;-73
2023/08/20 08:49:25;;;;;;;5.95;2.60;;;;;;;24.87;68.82;102166.66;5008850;28;20747;-72
2023/08/20 08:51:56;;;;;;;6.60;2.65;;;;;;;25.20;70.41;102175.91;5008830;28;20529;-72
2023/08/20 08:54:22;;;;;;;9.43;3.38;;;;;;;25.54;64.19;102167.31;5010199;28;20037;-72
2023/08/20 08:56:47;;;;;;;7.38;2.83;;;;;;;25.71;65.71;102162.59;5044341;28;20547;-73
2023/08/20 08:59:12;;;;;;;5.75;2.38;;;;;;;26.00;64.49;102167.56;5029393;28;20128;-72
2023/08/20 09:01:39;;;;;;;5.63;2.70;;;;;;;26.19;63.26;102177.41;5042624;28;20419;-72
2023/08/20 09:04:05;;;;;;;4.20;2.30;;;;;;;26.52;62.44;102168.91;5028288;28;20041;-72
2023/08/20 09:06:45;;;;;;;7.70;2.60;;;;;;;26.80;63.47;102169.25;5028422;28;20501;-72
2023/08/20 09:09:10;;;;;;;5.28;2.42;;;;;;;26.75;54.08;102169.78;5029148;28;20037;-72
2023/08/20 09:11:36;;;;;;;3.53;1.95;;;;;;;26.58;53.41;102169.06;5027635;28;20042;-72
2023/08/20 09:14:01;;;;;;;5.97;2.35;;;;;;;26.57;58.98;102172.00;5019704;28;20395;-72
2023/08/20 09:16:30;;;;;;;3.58;1.40;;;;;;;26.75;58.00;102169.78;5020925;28;20046;-72
2023/08/20 09:18:59;;;;;;;3.80;1.50;;;;;;;27.14;62.37;102164.13;5028939;28;20033;-73
2023/08/20 09:21:29;;;;;;;3.75;1.20;;;;;;;27.36;56.86;102164.25;5028041;28;20426;-72
2023/08/20 09:23:55;;;;;;;2.97;1.13;;;;;;;27.60;56.60;102169.56;5012380;28;20115;-73
2023/08/20 09:26:20;;;;;;;7.13;1.60;;;;;;;27.81;54.05;102168.88;5009082;28;20030;-73
2023/08/20 09:28:46;;;;;;;2.47;1.00;;;;;;;27.89;50.88;102168.78;5008787;28;20093;-72
2023/08/20 09:31:13;;;;;;;2.90;1.20;;;;;;;27.88;48.32;102177.34;5009449;28;20486;-73
2023/08/20 09:33:55;;;;;;;4.65;1.35;;;;;;;27.93;53.65;102177.63;5008063;28;20087;-72
2023/08/20 09:36:30;;;;;;;4.20;1.10;;;;;;;28.19;53.03;102172.41;5008096;28;20119;-73
2023/08/20 09:38:56;;;;;;;1.50;0.80;;;;;;;28.53;53.74;102173.72;5028137;28;20045;-73
2023/08/20 09:41:22;;;;;;;3.33;1.13;;;;;;;28.71;50.47;102173.28;5010320;28;20917;-73
2023/08/20 09:43:48;;;;;;;2.92;0.90;;;;;;;28.76;48.41;102176.34;5008533;28;20474;-73
2023/08/20 09:46:16;;;;;;;3.42;0.82;;;;;;;28.92;49.32;102178.91;5008381;28;20151;-72
2023/08/20 09:48:46;;;;;;;2.28;0.75;;;;;;;28.96;46.31;102174.66;5009213;28;20486;-73
2023/08/20 09:51:14;;;;;;;3.13;0.82;;;;;;;29.04;48.27;102182.03;5008119;28;20549;-73
2023/08/20 09:53:55;;;;;;;5.22;1.33;;;;;;;29.13;50.55;102174.38;5008895;28;20044;-72
2023/08/20 09:56:27;;;;;;;4.25;0.80;;;;;;;29.27;46.17;102175.34;5008196;28;20042;-73
2023/08/20 09:58:54;;;;;;;2.85;0.80;;;;;;;29.29;47.81;102182.50;5008244;28;20045;-73
2023/08/20 10:01:20;;;;;;;1.83;0.68;;;;;;;29.19;42.95;102177.25;5018551;28;20490;-73
2023/08/20 10:03:45;;;;;;;3.13;0.75;;;;;;;29.37;46.30;102173.06;5028127;28;20041;-72
2023/08/20 10:06:11;;;;;;;1.10;0.75;;;;;;;29.57;44.29;102174.13;5027776;28;20037;-72
2023/08/20 10:08:37;;;;;;;2.28;0.80;;;;;;;29.64;44.09;102166.63;5018226;28;20038;-73
2023/08/20 10:11:03;;;;;;;1.90;0.80;;;;;;;29.80;43.02;102167.34;5008607;28;20481;-73
2023/08/20 10:13:28;;;;;;;1.35;0.63;;;;;;;29.88;43.60;102176.47;5027320;28;20048;-72
2023/08/20 10:15:55;;;;;;;3.03;0.73;;;;;;;29.72;41.90;102179.63;5018414;28;20406;-72
2023/08/20 10:18:22;;;;;;;1.73;0.50;;;;;;;29.94;46.01;102169.19;5008032;28;20045;-73
2023/08/20 10:20:50;;;;;;;1.95;0.70;;;;;;;29.95;41.97;102174.59;5007619;28;20540;-72
2023/08/20 10:23:20;;;;;;;3.05;0.70;;;;;;;30.25;45.27;102182.75;5008047;28;20038;-73
2023/08/20 10:25:46;;;;;;;2.80;0.93;;;;;;;30.42;45.90;102172.91;5009375;28;20125;-72
2023/08/20 10:28:25;;;;;;;1.17;0.75;;;;;;;30.63;44.88;102171.00;5042842;28;20168;-72
2023/08/20 10:31:11;;;;;;;1.25;0.60;;;;;;;30.73;42.19;102178.00;5026431;28;20107;-72
2023/08/20 10:33:56;;;;;;;1.45;0.60;;;;;;;30.62;42.14;102169.28;5026615;28;20033;-73
2023/08/20 10:36:26;;;;;;;2.20;0.82;;;;;;;30.34;39.77;102175.88;5026947;28;20041;-73
2023/08/20 10:38:55;;;;;;;0.70;0.43;;;;;;;30.48;44.57;102176.78;5027561;28;20087;-72
2023/08/20 10:41:25;;;;;;;2.80;0.80;;;;;;;30.56;44.07;102181.38;5009721;28;20400;-72
2023/08/20 10:43:51;;;;;;;2.22;0.70;;;;;;;30.65;38.85;102175.34;5007730;28;20042;-73
2023/08/20 10:46:21;;;;;;;2.10;0.50;;;;;;;30.72;41.78;102175.38;5007798;28;20401;-73
2023/08/20 10:48:49;;;;;;;3.15;0.80;;;;;;;30.94;42.09;102176.09;5007887;28;20096;-73
2023/08/20 10:51:17;;;;;;;4.82;1.05;;;;;;;30.90;40.00;102170.03;5007186;28;20549;-71
2023/08/20 10:53:49;;;;;;;1.83;0.90;;;;;;;31.02;39.68;102172.22;5008389;28;20437;-73
2023/08/20 10:56:16;;;;;;;3.72;0.63;;;;;;;30.94;41.35;102174.13;5007770;28;20496;-73
2023/08/20 10:58:44;;;;;;;2.83;0.70;;;;;;;31.06;39.39;102174.38;5008238;28;20054;-73
2023/08/20 11:01:20;;;;;;;3.35;1.10;;;;;;;31.25;41.69;102170.72;5008485;28;20049;-71
2023/08/20 11:03:46;;;;;;;4.00;0.90;;;;;;;31.33;40.88;102172.44;5008215;28;20455;-72
2023/08/20 11:06:12;;;;;;;4.43;0.90;;;;;;;31.56;40.91;102177.63;5007718;28;20402;-73
2023/08/20 11:08:39;;;;;;;2.05;0.88;;;;;;;31.46;39.13;102171.59;5010810;28;20033;-73
2023/08/20 11:11:06;;;;;;;2.08;0.60;;;;;;;31.77;37.32;102175.66;5012896;28;20042;-72
2023/08/20 11:13:32;;;;;;;3.28;0.90;;;;;;;31.46;36.95;102177.22;5028844;28;20037;-73
2023/08/20 11:15:59;;;;;;;3.42;0.90;;;;;;;31.32;38.85;102175.50;5030128;28;20036;-73
2023/08/20 11:18:25;;;;;;;2.80;1.02;;;;;;;31.40;37.46;102169.66;5031249;28;20049;-73